sensor_id;sensor_type;location;lat;lon;timestamp;P1;durP1;ratioP1;P2;durP2;ratioP2
83059;SDS011;72884;44.366;3.426;2024-01-15T00:00:12;1.77;;;1.50;;
83059;SDS011;72884;44.366;3.426;2024-01-15T00:02:38;2.03;;;1.42;;
83059;SDS011;72884;44.366;3.426;2024-01-15T00:05:04;2.03;;;1.40;;
83059;SDS011;72884;44.366;3.426;2024-01-15T00:07:29;1.70;;;1.40;;
83059;SDS011;72884;44.366;3.426;2024-01-15T00:09:54;1.80;;;1.35;;
83059;SDS011;72884;44.366;3.426;2024-01-15T00:12:20;3.28;;;1.60;;
83059;SDS011;72884;44.366;3.426;2024-01-15T00:14:45;2.03;;;1.70;;
83059;SDS011;72884;44.366;3.426;2024-01-15T00:17:11;2.05;;;1.55;;
83059;SDS011;72884;44.366;3.426;2024-01-15T00:19:36;1.38;;;1.25;;
83059;SDS011;72884;44.366;3.426;2024-01-15T00:22:02;2.10;;;1.55;;
83059;SDS011;72884;44.366;3.426;2024-01-15T00:24:27;1.83;;;1.30;;
83059;SDS011;72884;44.366;3.426;2024-01-15T00:26:52;1.75;;;1.50;;
83059;SDS011;72884;44.366;3.426;2024-01-15T00:29:18;1.75;;;1.40;;
83059;SDS011;72884;44.366;3.426;2024-01-15T00:31:44;1.98;;;1.45;;
83059;SDS011;72884;44.366;3.426;2024-01-15T00:34:09;2.17;;;1.50;;
83059;SDS011;72884;44.366;3.426;2024-01-15T00:36:35;1.45;;;1.23;;
83059;SDS011;72884;44.366;3.426;2024-01-15T00:39:00;1.77;;;1.50;;
83059;SDS011;72884;44.366;3.426;2024-01-15T00:41:26;1.70;;;1.40;;
83059;SDS011;72884;44.366;3.426;2024-01-15T00:43:53;2.08;;;1.55;;
83059;SDS011;72884;44.366;3.426;2024-01-15T00:46:18;1.30;;;1.20;;
83059;SDS011;72884;44.366;3.426;2024-01-15T00:48:44;1.33;;;1.23;;
83059;SDS011;72884;44.366;3.426;2024-01-15T00:51:09;1.55;;;1.45;;
83059;SDS011;72884;44.366;3.426;2024-01-15T00:53:34;1.42;;;1.30;;
83059;SDS011;72884;44.366;3.426;2024-01-15T00:56:00;1.60;;;1.40;;
83059;SDS011;72884;44.366;3.426;2024-01-15T00:58:26;1.52;;;1.38;;
83059;SDS011;72884;44.366;3.426;2024-01-15T01:00:51;2.35;;;1.60;;
83059;SDS011;72884;44.366;3.426;2024-01-15T01:03:17;1.33;;;1.23;;
83059;SDS011;72884;44.366;3.426;2024-01-15T01:05:42;1.67;;;1.38;;
83059;SDS011;72884;44.366;3.426;2024-01-15T01:08:09;1.88;;;1.45;;
83059;SDS011;72884;44.366;3.426;2024-01-15T01:10:34;1.50;;;1.40;;
83059;SDS011;72884;44.366;3.426;2024-01-15T01:13:00;1.50;;;1.40;;
83059;SDS011;72884;44.366;3.426;2024-01-15T01:15:25;1.50;;;1.40;;
83059;SDS011;72884;44.366;3.426;2024-01-15T01:17:51;1.88;;;1.52;;
83059;SDS011;72884;44.366;3.426;2024-01-15T01:20:16;1.73;;;1.20;;
83059;SDS011;72884;44.366;3.426;2024-01-15T01:22:41;2.10;;;1.35;;
83059;SDS011;72884;44.366;3.426;2024-01-15T01:25:07;1.52;;;1.20;;
83059;SDS011;72884;44.366;3.426;2024-01-15T01:27:33;1.60;;;1.50;;
83059;SDS011;72884;44.366;3.426;2024-01-15T01:29:58;1.35;;;1.25;;
83059;SDS011;72884;44.366;3.426;2024-01-15T01:32:24;1.85;;;1.42;;
83059;SDS011;72884;44.366;3.426;2024-01-15T01:34:49;1.20;;;1.10;;
83059;SDS011;72884;44.366;3.426;2024-01-15T01:37:14;1.30;;;1.20;;
83059;SDS011;72884;44.366;3.426;2024-01-15T01:39:40;1.50;;;1.40;;
83059;SDS011;72884;44.366;3.426;2024-01-15T01:42:08;1.50;;;1.40;;
83059;SDS011;72884;44.366;3.426;2024-01-15T01:44:33;1.52;;;1.30;;
83059;SDS011;72884;44.366;3.426;2024-01-15T01:46:59;1.80;;;1.20;;
83059;SDS011;72884;44.366;3.426;2024-01-15T01:49:25;1.40;;;1.30;;
83059;SDS011;72884;44.366;3.426;2024-01-15T01:51:51;1.60;;;1.50;;
83059;SDS011;72884;44.366;3.426;2024-01-15T01:54:17;2.05;;;1.48;;
83059;SDS011;72884;44.366;3.426;2024-01-15T01:56:43;2.30;;;1.38;;
83059;SDS011;72884;44.366;3.426;2024-01-15T01:59:09;1.70;;;1.33;;
83059;SDS011;72884;44.366;3.426;2024-01-15T02:01:35;1.83;;;1.50;;
83059;SDS011;72884;44.366;3.426;2024-01-15T02:04:01;1.95;;;1.30;;
83059;SDS011;72884;44.366;3.426;2024-01-15T02:06:26;1.50;;;1.40;;
83059;SDS011;72884;44.366;3.426;2024-01-15T02:08:52;1.30;;;1.20;;
83059;SDS011;72884;44.366;3.426;2024-01-15T02:11:17;1.67;;;1.30;;
83059;SDS011;72884;44.366;3.426;2024-01-15T02:13:43;2.45;;;1.70;;
83059;SDS011;72884;44.366;3.426;2024-01-15T02:16:08;1.92;;;1.58;;
83059;SDS011;72884;44.366;3.426;2024-01-15T02:18:40;1.30;;;1.20;;
83059;SDS011;72884;44.366;3.426;2024-01-15T02:21:09;1.60;;;1.50;;
83059;SDS011;72884;44.366;3.426;2024-01-15T02:23:35;1.77;;;1.40;;
83059;SDS011;72884;44.366;3.426;2024-01-15T02:26:01;1.45;;;1.35;;
83059;SDS011;72884;44.366;3.426;2024-01-15T02:28:27;1.75;;;1.65;;
83059;SDS011;72884;44.366;3.426;2024-01-15T02:30:53;1.40;;;1.30;;
83059;SDS011;72884;44.366;3.426;2024-01-15T02:33:18;1.48;;;1.27;;
83059;SDS011;72884;44.366;3.426;2024-01-15T02:35:44;1.40;;;1.30;;
83059;SDS011;72884;44.366;3.426;2024-01-15T02:38:11;1.38;;;1.15;;
83059;SDS011;72884;44.366;3.426;2024-01-15T02:40:37;1.40;;;1.30;;
83059;SDS011;72884;44.366;3.426;2024-01-15T02:43:03;1.58;;;1.33;;
83059;SDS011;72884;44.366;3.426;2024-01-15T02:45:29;1.70;;;1.52;;
83059;SDS011;72884;44.366;3.426;2024-01-15T02:47:54;1.30;;;1.20;;
83059;SDS011;72884;44.366;3.426;2024-01-15T02:50:20;1.25;;;1.15;;
83059;SDS011;72884;44.366;3.426;2024-01-15T02:52:45;1.20;;;1.10;;
83059;SDS011;72884;44.366;3.426;2024-01-15T02:55:11;1.60;;;1.50;;
83059;SDS011;72884;44.366;3.426;2024-01-15T02:57:36;1.48;;;1.20;;
83059;SDS011;72884;44.366;3.426;2024-01-15T03:00:02;2.03;;;1.58;;
83059;SDS011;72884;44.366;3.426;2024-01-15T03:02:28;1.25;;;1.15;;
83059;SDS011;72884;44.366;3.426;2024-01-15T03:04:56;1.30;;;1.20;;
83059;SDS011;72884;44.366;3.426;2024-01-15T03:07:22;1.35;;;1.20;;
83059;SDS011;72884;44.366;3.426;2024-01-15T03:09:47;1.52;;;1.30;;
83059;SDS011;72884;44.366;3.426;2024-01-15T03:12:13;1.30;;;1.20;;
83059;SDS011;72884;44.366;3.426;2024-01-15T03:14:38;1.10;;;1.00;;
83059;SDS011;72884;44.366;3.426;2024-01-15T03:17:03;1.75;;;1.30;;
83059;SDS011;72884;44.366;3.426;2024-01-15T03:19:29;1.38;;;1.27;;
83059;SDS011;72884;44.366;3.426;2024-01-15T03:21:55;1.30;;;1.20;;
83059;SDS011;72884;44.366;3.426;2024-01-15T03:24:21;1.10;;;1.00;;
83059;SDS011;72884;44.366;3.426;2024-01-15T03:26:46;1.27;;;1.08;;
83059;SDS011;72884;44.366;3.426;2024-01-15T03:29:12;1.52;;;1.23;;
83059;SDS011;72884;44.366;3.426;2024-01-15T03:31:37;1.70;;;1.40;;
83059;SDS011;72884;44.366;3.426;2024-01-15T03:34:03;1.27;;;1.17;;
83059;SDS011;72884;44.366;3.426;2024-01-15T03:36:28;2.35;;;1.30;;
83059;SDS011;72884;44.366;3.426;2024-01-15T03:38:54;1.52;;;1.40;;
83059;SDS011;72884;44.366;3.426;2024-01-15T03:41:19;1.77;;;1.40;;
83059;SDS011;72884;44.366;3.426;2024-01-15T03:43:44;1.60;;;1.30;;
83059;SDS011;72884;44.366;3.426;2024-01-15T03:46:10;1.75;;;1.50;;
83059;SDS011;72884;44.366;3.426;2024-01-15T03:48:35;1.02;;;1.00;;
83059;SDS011;72884;44.366;3.426;2024-01-15T03:51:01;1.73;;;1.30;;
83059;SDS011;72884;44.366;3.426;2024-01-15T03:53:26;1.60;;;1.27;;
83059;SDS011;72884;44.366;3.426;2024-01-15T03:55:51;1.83;;;1.30;;
83059;SDS011;72884;44.366;3.426;2024-01-15T03:58:17;1.38;;;1.27;;
83059;SDS011;72884;44.366;3.426;2024-01-15T04:00:43;1.88;;;1.40;;
83059;SDS011;72884;44.366;3.426;2024-01-15T04:03:08;1.75;;;1.10;;
83059;SDS011;72884;44.366;3.426;2024-01-15T04:05:34;1.15;;;1.08;;
83059;SDS011;72884;44.366;3.426;2024-01-15T04:07:59;2.05;;;1.35;;
83059;SDS011;72884;44.366;3.426;2024-01-15T04:10:25;1.40;;;1.30;;
83059;SDS011;72884;44.366;3.426;2024-01-15T04:12:50;1.40;;;1.30;;
83059;SDS011;72884;44.366;3.426;2024-01-15T04:15:16;1.42;;;1.20;;
83059;SDS011;72884;44.366;3.426;2024-01-15T04:17:41;1.67;;;1.30;;
83059;SDS011;72884;44.366;3.426;2024-01-15T04:20:07;1.30;;;1.20;;
83059;SDS011;72884;44.366;3.426;2024-01-15T04:22:33;1.33;;;1.20;;
83059;SDS011;72884;44.366;3.426;2024-01-15T04:24:59;1.65;;;1.20;;
83059;SDS011;72884;44.366;3.426;2024-01-15T04:27:25;1.33;;;1.20;;
83059;SDS011;72884;44.366;3.426;2024-01-15T04:29:50;1.30;;;1.17;;
83059;SDS011;72884;44.366;3.426;2024-01-15T04:32:16;1.20;;;1.10;;
83059;SDS011;72884;44.366;3.426;2024-01-15T04:34:41;1.20;;;1.10;;
83059;SDS011;72884;44.366;3.426;2024-01-15T04:37:06;1.33;;;1.23;;
83059;SDS011;72884;44.366;3.426;2024-01-15T04:39:32;1.40;;;1.30;;
83059;SDS011;72884;44.366;3.426;2024-01-15T04:41:57;1.20;;;1.10;;
83059;SDS011;72884;44.366;3.426;2024-01-15T04:44:23;1.25;;;1.10;;
83059;SDS011;72884;44.366;3.426;2024-01-15T04:46:48;2.28;;;1.40;;
83059;SDS011;72884;44.366;3.426;2024-01-15T04:49:13;1.10;;;1.10;;
83059;SDS011;72884;44.366;3.426;2024-01-15T04:51:39;1.30;;;1.20;;
83059;SDS011;72884;44.366;3.426;2024-01-15T04:54:04;1.40;;;1.30;;
83059;SDS011;72884;44.366;3.426;2024-01-15T04:56:29;1.20;;;0.98;;
83059;SDS011;72884;44.366;3.426;2024-01-15T04:58:55;1.23;;;1.13;;
83059;SDS011;72884;44.366;3.426;2024-01-15T05:01:20;1.38;;;1.20;;
83059;SDS011;72884;44.366;3.426;2024-01-15T05:03:46;1.88;;;1.33;;
83059;SDS011;72884;44.366;3.426;2024-01-15T05:06:11;1.33;;;1.02;;
83059;SDS011;72884;44.366;3.426;2024-01-15T05:08:36;1.33;;;1.23;;
83059;SDS011;72884;44.366;3.426;2024-01-15T05:11:02;1.10;;;1.00;;
83059;SDS011;72884;44.366;3.426;2024-01-15T05:13:27;1.15;;;1.05;;
83059;SDS011;72884;44.366;3.426;2024-01-15T05:15:53;1.38;;;1.27;;
83059;SDS011;72884;44.366;3.426;2024-01-15T05:18:18;1.38;;;1.10;;
83059;SDS011;72884;44.366;3.426;2024-01-15T05:20:44;1.52;;;1.10;;
83059;SDS011;72884;44.366;3.426;2024-01-15T05:23:09;1.70;;;1.50;;
83059;SDS011;72884;44.366;3.426;2024-01-15T05:25:34;1.00;;;1.00;;
83059;SDS011;72884;44.366;3.426;2024-01-15T05:28:00;1.33;;;1.23;;
83059;SDS011;72884;44.366;3.426;2024-01-15T05:30:26;0.90;;;0.90;;
83059;SDS011;72884;44.366;3.426;2024-01-15T05:32:51;0.98;;;0.98;;
83059;SDS011;72884;44.366;3.426;2024-01-15T05:35:16;1.65;;;1.35;;
83059;SDS011;72884;44.366;3.426;2024-01-15T05:37:43;1.30;;;1.20;;
83059;SDS011;72884;44.366;3.426;2024-01-15T05:40:10;0.90;;;0.90;;
83059;SDS011;72884;44.366;3.426;2024-01-15T05:42:36;1.52;;;1.20;;
83059;SDS011;72884;44.366;3.426;2024-01-15T05:45:02;1.17;;;1.10;;
83059;SDS011;72884;44.366;3.426;2024-01-15T05:47:29;0.90;;;0.90;;
83059;SDS011;72884;44.366;3.426;2024-01-15T05:49:55;1.25;;;1.15;;
83059;SDS011;72884;44.366;3.426;2024-01-15T05:52:21;1.65;;;1.20;;
83059;SDS011;72884;44.366;3.426;2024-01-15T05:54:47;1.00;;;1.00;;
83059;SDS011;72884;44.366;3.426;2024-01-15T05:57:12;1.20;;;1.10;;
83059;SDS011;72884;44.366;3.426;2024-01-15T05:59:38;1.13;;;1.02;;
83059;SDS011;72884;44.366;3.426;2024-01-15T06:02:03;0.90;;;0.90;;
83059;SDS011;72884;44.366;3.426;2024-01-15T06:04:29;1.60;;;1.20;;
83059;SDS011;72884;44.366;3.426;2024-01-15T06:06:54;1.65;;;1.30;;
83059;SDS011;72884;44.366;3.426;2024-01-15T06:09:20;1.20;;;1.10;;
83059;SDS011;72884;44.366;3.426;2024-01-15T06:11:45;1.27;;;1.17;;
83059;SDS011;72884;44.366;3.426;2024-01-15T06:14:11;1.35;;;1.20;;
83059;SDS011;72884;44.366;3.426;2024-01-15T06:16:36;1.52;;;1.38;;
83059;SDS011;72884;44.366;3.426;2024-01-15T06:19:01;1.23;;;1.13;;
83059;SDS011;72884;44.366;3.426;2024-01-15T06:21:28;1.20;;;1.10;;
83059;SDS011;72884;44.366;3.426;2024-01-15T06:23:53;1.88;;;1.15;;
83059;SDS011;72884;44.366;3.426;2024-01-15T06:26:18;1.20;;;1.10;;
83059;SDS011;72884;44.366;3.426;2024-01-15T06:28:44;1.50;;;1.20;;
83059;SDS011;72884;44.366;3.426;2024-01-15T06:31:09;1.27;;;1.00;;
83059;SDS011;72884;44.366;3.426;2024-01-15T06:33:35;1.30;;;1.20;;
83059;SDS011;72884;44.366;3.426;2024-01-15T06:38:37;1.00;;;1.00;;
83059;SDS011;72884;44.366;3.426;2024-01-15T06:41:02;1.45;;;0.90;;
83059;SDS011;72884;44.366;3.426;2024-01-15T06:43:28;1.27;;;1.17;;
83059;SDS011;72884;44.366;3.426;2024-01-15T06:45:53;1.13;;;1.00;;
83059;SDS011;72884;44.366;3.426;2024-01-15T06:48:19;1.27;;;1.10;;
83059;SDS011;72884;44.366;3.426;2024-01-15T06:50:44;1.40;;;1.30;;
83059;SDS011;72884;44.366;3.426;2024-01-15T06:53:10;1.75;;;1.23;;
83059;SDS011;72884;44.366;3.426;2024-01-15T06:55:35;1.38;;;1.15;;
83059;SDS011;72884;44.366;3.426;2024-01-15T06:58:01;6.32;;;1.35;;
83059;SDS011;72884;44.366;3.426;2024-01-15T07:00:26;2.00;;;1.10;;
83059;SDS011;72884;44.366;3.426;2024-01-15T07:02:52;1.30;;;1.20;;
83059;SDS011;72884;44.366;3.426;2024-01-15T07:05:19;7.47;;;1.50;;
83059;SDS011;72884;44.366;3.426;2024-01-15T07:07:45;12.05;;;1.40;;
83059;SDS011;72884;44.366;3.426;2024-01-15T07:10:11;8.27;;;1.90;;
83059;SDS011;72884;44.366;3.426;2024-01-15T07:12:36;6.68;;;1.52;;
83059;SDS011;72884;44.366;3.426;2024-01-15T07:15:01;6.47;;;1.30;;
83059;SDS011;72884;44.366;3.426;2024-01-15T07:17:27;2.70;;;1.20;;
83059;SDS011;72884;44.366;3.426;2024-01-15T07:19:53;24.27;;;1.52;;
83059;SDS011;72884;44.366;3.426;2024-01-15T07:22:18;5.43;;;1.50;;
83059;SDS011;72884;44.366;3.426;2024-01-15T07:24:44;12.68;;;1.38;;
83059;SDS011;72884;44.366;3.426;2024-01-15T07:27:10;9.98;;;1.50;;
83059;SDS011;72884;44.366;3.426;2024-01-15T07:29:35;28.33;;;1.70;;
83059;SDS011;72884;44.366;3.426;2024-01-15T07:32:02;19.48;;;1.80;;
83059;SDS011;72884;44.366;3.426;2024-01-15T07:34:28;10.88;;;1.65;;
83059;SDS011;72884;44.366;3.426;2024-01-15T07:36:54;12.40;;;1.30;;
83059;SDS011;72884;44.366;3.426;2024-01-15T07:39:19;9.07;;;1.63;;
83059;SDS011;72884;44.366;3.426;2024-01-15T07:41:45;12.35;;;1.30;;
83059;SDS011;72884;44.366;3.426;2024-01-15T07:44:10;26.50;;;1.80;;
83059;SDS011;72884;44.366;3.426;2024-01-15T07:46:35;16.70;;;1.88;;
83059;SDS011;72884;44.366;3.426;2024-01-15T07:49:01;17.13;;;2.03;;
83059;SDS011;72884;44.366;3.426;2024-01-15T07:51:27;17.98;;;1.65;;
83059;SDS011;72884;44.366;3.426;2024-01-15T07:53:53;16.45;;;1.63;;
83059;SDS011;72884;44.366;3.426;2024-01-15T07:56:18;18.88;;;1.92;;
83059;SDS011;72884;44.366;3.426;2024-01-15T07:58:44;15.60;;;1.52;;
83059;SDS011;72884;44.366;3.426;2024-01-15T08:01:10;10.82;;;1.63;;
83059;SDS011;72884;44.366;3.426;2024-01-15T08:03:35;28.23;;;2.53;;
83059;SDS011;72884;44.366;3.426;2024-01-15T08:06:00;12.80;;;1.90;;
83059;SDS011;72884;44.366;3.426;2024-01-15T08:08:26;13.40;;;1.65;;
83059;SDS011;72884;44.366;3.426;2024-01-15T08:10:52;12.35;;;1.92;;
83059;SDS011;72884;44.366;3.426;2024-01-15T08:13:18;14.38;;;1.73;;
83059;SDS011;72884;44.366;3.426;2024-01-15T08:15:43;13.02;;;1.73;;
83059;SDS011;72884;44.366;3.426;2024-01-15T08:18:09;15.05;;;1.85;;
83059;SDS011;72884;44.366;3.426;2024-01-15T08:20:34;17.65;;;1.92;;
83059;SDS011;72884;44.366;3.426;2024-01-15T08:22:59;12.40;;;1.67;;
83059;SDS011;72884;44.366;3.426;2024-01-15T08:25:25;10.88;;;1.60;;
83059;SDS011;72884;44.366;3.426;2024-01-15T08:27:51;17.45;;;1.70;;
83059;SDS011;72884;44.366;3.426;2024-01-15T08:30:17;18.13;;;1.90;;
83059;SDS011;72884;44.366;3.426;2024-01-15T08:32:43;14.63;;;1.60;;
83059;SDS011;72884;44.366;3.426;2024-01-15T08:35:09;16.13;;;1.90;;
83059;SDS011;72884;44.366;3.426;2024-01-15T08:37:35;19.80;;;1.80;;
83059;SDS011;72884;44.366;3.426;2024-01-15T08:40:01;13.23;;;2.40;;
83059;SDS011;72884;44.366;3.426;2024-01-15T08:42:26;10.98;;;1.80;;
83059;SDS011;72884;44.366;3.426;2024-01-15T08:44:52;12.68;;;2.10;;
83059;SDS011;72884;44.366;3.426;2024-01-15T08:47:17;7.97;;;1.98;;
83059;SDS011;72884;44.366;3.426;2024-01-15T08:49:43;8.52;;;1.55;;
83059;SDS011;72884;44.366;3.426;2024-01-15T08:52:10;16.23;;;1.63;;
83059;SDS011;72884;44.366;3.426;2024-01-15T08:54:35;19.30;;;1.77;;
83059;SDS011;72884;44.366;3.426;2024-01-15T08:57:01;11.15;;;1.90;;
83059;SDS011;72884;44.366;3.426;2024-01-15T08:59:26;11.05;;;1.90;;
83059;SDS011;72884;44.366;3.426;2024-01-15T09:01:52;8.45;;;1.70;;
83059;SDS011;72884;44.366;3.426;2024-01-15T09:04:18;15.43;;;1.73;;
83059;SDS011;72884;44.366;3.426;2024-01-15T09:06:47;13.32;;;1.90;;
83059;SDS011;72884;44.366;3.426;2024-01-15T09:09:12;9.88;;;1.80;;
83059;SDS011;72884;44.366;3.426;2024-01-15T09:11:39;12.77;;;2.28;;
83059;SDS011;72884;44.366;3.426;2024-01-15T09:14:04;28.08;;;2.58;;
83059;SDS011;72884;44.366;3.426;2024-01-15T09:16:29;18.20;;;1.98;;
83059;SDS011;72884;44.366;3.426;2024-01-15T09:18:55;17.67;;;2.20;;
83059;SDS011;72884;44.366;3.426;2024-01-15T09:21:22;20.25;;;2.45;;
83059;SDS011;72884;44.366;3.426;2024-01-15T09:23:49;14.88;;;2.20;;
83059;SDS011;72884;44.366;3.426;2024-01-15T09:26:15;16.77;;;1.98;;
83059;SDS011;72884;44.366;3.426;2024-01-15T09:28:40;7.53;;;1.73;;
83059;SDS011;72884;44.366;3.426;2024-01-15T09:31:05;10.32;;;1.83;;
83059;SDS011;72884;44.366;3.426;2024-01-15T09:33:31;11.23;;;2.05;;
83059;SDS011;72884;44.366;3.426;2024-01-15T09:35:56;13.27;;;2.20;;
83059;SDS011;72884;44.366;3.426;2024-01-15T09:38:22;15.18;;;2.15;;
83059;SDS011;72884;44.366;3.426;2024-01-15T09:40:49;15.38;;;2.15;;
83059;SDS011;72884;44.366;3.426;2024-01-15T09:43:14;15.15;;;2.13;;
83059;SDS011;72884;44.366;3.426;2024-01-15T09:45:41;18.40;;;2.10;;
83059;SDS011;72884;44.366;3.426;2024-01-15T09:48:07;5.90;;;1.90;;
83059;SDS011;72884;44.366;3.426;2024-01-15T09:50:32;19.13;;;2.30;;
83059;SDS011;72884;44.366;3.426;2024-01-15T09:52:57;19.58;;;2.45;;
83059;SDS011;72884;44.366;3.426;2024-01-15T09:55:23;20.67;;;2.42;;
83059;SDS011;72884;44.366;3.426;2024-01-15T09:57:48;19.95;;;2.50;;
83059;SDS011;72884;44.366;3.426;2024-01-15T10:00:17;14.35;;;2.25;;
83059;SDS011;72884;44.366;3.426;2024-01-15T10:02:42;4.95;;;1.95;;
83059;SDS011;72884;44.366;3.426;2024-01-15T10:05:08;21.55;;;2.13;;
83059;SDS011;72884;44.366;3.426;2024-01-15T10:07:34;25.45;;;3.28;;
83059;SDS011;72884;44.366;3.426;2024-01-15T10:10:00;18.63;;;2.97;;
83059;SDS011;72884;44.366;3.426;2024-01-15T10:12:25;12.93;;;2.88;;
83059;SDS011;72884;44.366;3.426;2024-01-15T10:14:52;11.00;;;3.10;;
83059;SDS011;72884;44.366;3.426;2024-01-15T10:17:17;11.85;;;3.25;;
83059;SDS011;72884;44.366;3.426;2024-01-15T10:19:44;16.67;;;3.25;;
83059;SDS011;72884;44.366;3.426;2024-01-15T10:22:10;10.25;;;2.95;;
83059;SDS011;72884;44.366;3.426;2024-01-15T10:24:36;11.75;;;3.30;;
83059;SDS011;72884;44.366;3.426;2024-01-15T10:27:06;15.13;;;4.03;;
83059;SDS011;72884;44.366;3.426;2024-01-15T10:29:32;9.88;;;3.33;;
83059;SDS011;72884;44.366;3.426;2024-01-15T10:31:57;9.82;;;3.30;;
83059;SDS011;72884;44.366;3.426;2024-01-15T10:34:24;10.77;;;3.70;;
83059;SDS011;72884;44.366;3.426;2024-01-15T10:36:50;16.52;;;3.85;;
83059;SDS011;72884;44.366;3.426;2024-01-15T10:39:23;12.02;;;3.40;;
83059;SDS011;72884;44.366;3.426;2024-01-15T10:41:49;20.13;;;4.07;;
83059;SDS011;72884;44.366;3.426;2024-01-15T10:44:16;16.60;;;4.20;;
83059;SDS011;72884;44.366;3.426;2024-01-15T10:46:42;15.60;;;3.88;;
83059;SDS011;72884;44.366;3.426;2024-01-15T10:49:08;9.00;;;3.95;;
83059;SDS011;72884;44.366;3.426;2024-01-15T10:51:35;13.43;;;3.78;;
83059;SDS011;72884;44.366;3.426;2024-01-15T10:54:01;9.25;;;3.97;;
83059;SDS011;72884;44.366;3.426;2024-01-15T10:56:27;10.32;;;3.90;;
83059;SDS011;72884;44.366;3.426;2024-01-15T10:58:52;10.75;;;4.25;;
83059;SDS011;72884;44.366;3.426;2024-01-15T11:01:19;17.05;;;4.75;;
83059;SDS011;72884;44.366;3.426;2024-01-15T11:03:45;14.75;;;4.30;;
83059;SDS011;72884;44.366;3.426;2024-01-15T11:06:18;13.10;;;3.90;;
83059;SDS011;72884;44.366;3.426;2024-01-15T11:08:50;18.30;;;3.97;;
83059;SDS011;72884;44.366;3.426;2024-01-15T11:11:19;15.07;;;4.10;;
83059;SDS011;72884;44.366;3.426;2024-01-15T11:13:46;10.00;;;3.72;;
83059;SDS011;72884;44.366;3.426;2024-01-15T11:16:14;21.98;;;4.25;;
83059;SDS011;72884;44.366;3.426;2024-01-15T11:18:43;13.20;;;3.75;;
83059;SDS011;72884;44.366;3.426;2024-01-15T11:21:27;12.80;;;4.00;;
83059;SDS011;72884;44.366;3.426;2024-01-15T11:23:55;10.77;;;3.30;;
83059;SDS011;72884;44.366;3.426;2024-01-15T11:41:57;13.60;;;3.70;;
83059;SDS011;72884;44.366;3.426;2024-01-15T11:44:23;13.43;;;3.65;;
83059;SDS011;72884;44.366;3.426;2024-01-15T11:52:11;11.10;;;3.60;;
83059;SDS011;72884;44.366;3.426;2024-01-15T11:54:37;9.48;;;3.53;;
83059;SDS011;72884;44.366;3.426;2024-01-15T11:57:04;14.70;;;4.03;;
83059;SDS011;72884;44.366;3.426;2024-01-15T11:59:34;8.57;;;3.38;;
83059;SDS011;72884;44.366;3.426;2024-01-15T12:02:00;9.00;;;3.60;;
83059;SDS011;72884;44.366;3.426;2024-01-15T12:04:26;11.43;;;3.75;;
83059;SDS011;72884;44.366;3.426;2024-01-15T12:06:52;12.73;;;5.03;;
83059;SDS011;72884;44.366;3.426;2024-01-15T12:09:19;22.27;;;8.02;;
83059;SDS011;72884;44.366;3.426;2024-01-15T12:11:46;26.65;;;8.48;;
83059;SDS011;72884;44.366;3.426;2024-01-15T12:14:16;25.02;;;9.15;;
83059;SDS011;72884;44.366;3.426;2024-01-15T12:16:41;30.40;;;8.65;;
83059;SDS011;72884;44.366;3.426;2024-01-15T12:19:07;24.25;;;8.68;;
83059;SDS011;72884;44.366;3.426;2024-01-15T12:21:32;21.45;;;8.70;;
83059;SDS011;72884;44.366;3.426;2024-01-15T12:23:59;28.88;;;9.73;;
83059;SDS011;72884;44.366;3.426;2024-01-15T12:26:24;22.00;;;8.68;;
83059;SDS011;72884;44.366;3.426;2024-01-15T12:28:50;24.52;;;9.50;;
83059;SDS011;72884;44.366;3.426;2024-01-15T12:31:16;23.98;;;8.57;;
83059;SDS011;72884;44.366;3.426;2024-01-15T12:33:41;24.85;;;8.80;;
83059;SDS011;72884;44.366;3.426;2024-01-15T12:36:07;27.33;;;8.50;;
83059;SDS011;72884;44.366;3.426;2024-01-15T12:38:32;21.42;;;8.25;;
83059;SDS011;72884;44.366;3.426;2024-01-15T12:40:57;21.58;;;7.85;;
83059;SDS011;72884;44.366;3.426;2024-01-15T12:43:25;27.00;;;7.93;;
83059;SDS011;72884;44.366;3.426;2024-01-15T12:45:50;14.63;;;7.43;;
83059;SDS011;72884;44.366;3.426;2024-01-15T12:48:16;28.85;;;7.18;;
83059;SDS011;72884;44.366;3.426;2024-01-15T12:50:42;18.50;;;6.72;;
83059;SDS011;72884;44.366;3.426;2024-01-15T12:53:08;22.65;;;7.32;;
83059;SDS011;72884;44.366;3.426;2024-01-15T12:55:34;21.35;;;7.18;;
83059;SDS011;72884;44.366;3.426;2024-01-15T12:57:59;24.77;;;6.43;;
83059;SDS011;72884;44.366;3.426;2024-01-15T13:00:25;42.78;;;7.63;;
83059;SDS011;72884;44.366;3.426;2024-01-15T13:02:50;48.10;;;8.93;;
83059;SDS011;72884;44.366;3.426;2024-01-15T13:05:16;35.72;;;8.07;;
83059;SDS011;72884;44.366;3.426;2024-01-15T13:07:42;44.63;;;8.68;;
83059;SDS011;72884;44.366;3.426;2024-01-15T13:10:07;34.78;;;8.15;;
83059;SDS011;72884;44.366;3.426;2024-01-15T13:12:37;38.75;;;8.60;;
83059;SDS011;72884;44.366;3.426;2024-01-15T13:15:02;38.67;;;7.22;;
83059;SDS011;72884;44.366;3.426;2024-01-15T13:17:31;29.92;;;7.22;;
83059;SDS011;72884;44.366;3.426;2024-01-15T13:19:56;36.05;;;7.43;;
83059;SDS011;72884;44.366;3.426;2024-01-15T13:22:22;29.02;;;6.32;;
83059;SDS011;72884;44.366;3.426;2024-01-15T13:24:47;37.15;;;7.57;;
83059;SDS011;72884;44.366;3.426;2024-01-15T13:27:13;34.80;;;7.10;;
83059;SDS011;72884;44.366;3.426;2024-01-15T13:29:38;38.45;;;7.68;;
83059;SDS011;72884;44.366;3.426;2024-01-15T13:32:03;39.75;;;7.30;;
83059;SDS011;72884;44.366;3.426;2024-01-15T13:34:30;33.83;;;7.20;;
83059;SDS011;72884;44.366;3.426;2024-01-15T13:36:55;38.25;;;7.20;;
83059;SDS011;72884;44.366;3.426;2024-01-15T13:39:21;31.98;;;6.05;;
83059;SDS011;72884;44.366;3.426;2024-01-15T13:41:46;44.90;;;6.50;;
83059;SDS011;72884;44.366;3.426;2024-01-15T13:44:12;39.85;;;5.82;;
83059;SDS011;72884;44.366;3.426;2024-01-15T13:46:37;38.08;;;6.30;;
83059;SDS011;72884;44.366;3.426;2024-01-15T13:49:03;32.97;;;5.95;;
83059;SDS011;72884;44.366;3.426;2024-01-15T13:51:30;24.92;;;5.22;;
83059;SDS011;72884;44.366;3.426;2024-01-15T13:53:56;26.52;;;5.50;;
83059;SDS011;72884;44.366;3.426;2024-01-15T13:56:21;45.17;;;5.93;;
83059;SDS011;72884;44.366;3.426;2024-01-15T13:58:47;28.70;;;5.57;;
83059;SDS011;72884;44.366;3.426;2024-01-15T14:01:13;26.08;;;4.47;;
83059;SDS011;72884;44.366;3.426;2024-01-15T14:03:38;18.15;;;4.82;;
83059;SDS011;72884;44.366;3.426;2024-01-15T14:06:04;22.58;;;5.22;;
83059;SDS011;72884;44.366;3.426;2024-01-15T14:08:33;23.15;;;4.72;;
83059;SDS011;72884;44.366;3.426;2024-01-15T14:11:00;19.58;;;4.20;;
83059;SDS011;72884;44.366;3.426;2024-01-15T14:13:25;25.35;;;5.25;;
83059;SDS011;72884;44.366;3.426;2024-01-15T14:15:50;22.63;;;5.05;;
83059;SDS011;72884;44.366;3.426;2024-01-15T14:18:16;19.00;;;4.30;;
83059;SDS011;72884;44.366;3.426;2024-01-15T14:20:42;20.25;;;4.70;;
83059;SDS011;72884;44.366;3.426;2024-01-15T14:23:08;30.33;;;5.05;;
83059;SDS011;72884;44.366;3.426;2024-01-15T14:25:34;26.73;;;4.50;;
83059;SDS011;72884;44.366;3.426;2024-01-15T14:27:59;33.45;;;4.57;;
83059;SDS011;72884;44.366;3.426;2024-01-15T14:30:25;25.45;;;5.10;;
83059;SDS011;72884;44.366;3.426;2024-01-15T14:32:50;25.35;;;4.63;;
83059;SDS011;72884;44.366;3.426;2024-01-15T14:35:15;25.02;;;3.95;;
83059;SDS011;72884;44.366;3.426;2024-01-15T14:37:41;24.77;;;4.18;;
83059;SDS011;72884;44.366;3.426;2024-01-15T14:40:06;20.95;;;4.03;;
83059;SDS011;72884;44.366;3.426;2024-01-15T14:42:35;21.10;;;4.35;;
83059;SDS011;72884;44.366;3.426;2024-01-15T14:45:01;14.73;;;3.63;;
83059;SDS011;72884;44.366;3.426;2024-01-15T14:47:28;27.25;;;4.05;;
83059;SDS011;72884;44.366;3.426;2024-01-15T14:49:54;24.48;;;3.58;;
83059;SDS011;72884;44.366;3.426;2024-01-15T14:52:21;22.25;;;3.60;;
83059;SDS011;72884;44.366;3.426;2024-01-15T14:54:47;23.75;;;2.92;;